Time;durP1;ratioP1;P1;durP2;ratioP2;P2;SDS_P1;SDS_P2;PMS_P1;PMS_P2;Temp;Humidity;BMP_temperature;BMP_pressure;BME280_temperature;BME280_humidity;BME280_pressure;Samples;Min_cycle;Max_cycle;Signal;HPM_P1;HPM_P2
2023/10/02 00:00:40;;;;;;;36.90;17.80;;;;;;;16.95;100.00;101983.16;5031459;28;20034;-73
2023/10/02 00:03:09;;;;;;;38.92;18.80;;;;;;;16.95;100.00;101977.75;5032662;28;20181;-73
2023/10/02 00:05:50;;;;;;;34.80;17.20;;;;;;;16.95;100.00;101973.22;5018151;28;20079;-73
2023/10/02 00:11:35;;;;;;;38.33;18.98;;;;;;;16.87;100.00;101980.13;5028523;28;20045;-73
2023/10/02 00:14:19;;;;;;;40.47;17.80;;;;;;;16.81;100.00;101979.59;5031403;28;20087;-73
2023/10/02 00:16:59;;;;;;;32.63;16.67;;;;;;;16.77;100.00;101970.03;5031576;28;20037;-74
2023/10/02 00:19:38;;;;;;;35.53;16.15;;;;;;;16.76;100.00;101964.75;5029315;28;20994;-73
2023/10/02 00:22:08;;;;;;;37.58;17.73;;;;;;;16.76;100.00;101970.13;5023697;28;20872;-73
2023/10/02 00:24:38;;;;;;;34.38;17.02;;;;;;;16.68;100.00;101970.66;5028973;28;20041;-73
2023/10/02 00:27:05;;;;;;;33.58;15.77;;;;;;;16.64;100.00;101970.97;5022399;28;20064;-73
2023/10/02 00:29:31;;;;;;;34.28;16.80;;;;;;;16.55;100.00;101973.34;5039913;28;20042;-73
2023/10/02 00:31:58;;;;;;;35.55;17.80;;;;;;;16.60;100.00;101978.41;5030538;28;20040;-73
2023/10/02 00:34:31;;;;;;;35.30;16.85;;;;;;;16.58;100.00;101980.34;5067750;28;20045;-73
2023/10/02 00:37:12;;;;;;;41.55;17.83;;;;;;;16.58;100.00;101969.59;5023970;28;20044;-72
2023/10/02 00:39:39;;;;;;;33.45;16.80;;;;;;;16.60;100.00;101973.03;5025385;28;20034;-73
2023/10/02 00:45:03;;;;;;;32.10;16.95;;;;;;;16.50;100.00;101964.72;5031647;28;20049;-73
2023/10/02 00:47:50;;;;;;;39.30;18.15;;;;;;;16.54;100.00;101971.63;5028175;28;20029;-73
2023/10/02 00:50:24;;;;;;;33.97;16.05;;;;;;;16.49;100.00;101965.69;5031134;28;20046;-73
2023/10/02 00:53:03;;;;;;;34.40;16.50;;;;;;;16.48;100.00;101961.28;5030557;28;20040;-74
2023/10/02 00:55:34;;;;;;;38.25;16.95;;;;;;;16.41;100.00;101965.38;5037155;28;20042;-74
2023/10/02 00:58:05;;;;;;;37.92;17.42;;;;;;;16.43;100.00;101963.44;5030838;28;20038;-73
2023/10/02 01:00:42;;;;;;;29.48;15.60;;;;;;;16.41;100.00;101965.38;5035725;28;20144;-72
2023/10/02 01:03:14;;;;;;;31.00;16.20;;;;;;;16.39;100.00;101961.06;5039507;28;20034;-73
2023/10/02 01:05:47;;;;;;;35.85;16.67;;;;;;;16.39;100.00;101961.06;5025110;28;20064;-72
2023/10/02 01:08:42;;;;;;;31.77;16.02;;;;;;;16.34;100.00;101955.16;5020842;28;20038;-73
2023/10/02 01:11:13;;;;;;;35.33;16.40;;;;;;;16.27;100.00;101952.91;5059938;28;20049;-73
2023/10/02 01:13:40;;;;;;;32.92;16.40;;;;;;;16.25;100.00;101946.75;5030408;28;20570;-72
2023/10/02 01:16:08;;;;;;;30.42;16.08;;;;;;;16.23;100.00;101956.75;5030451;28;20070;-73
2023/10/02 01:18:38;;;;;;;39.67;16.42;;;;;;;16.26;100.00;101950.28;5031940;28;20475;-73
2023/10/02 01:21:18;;;;;;;32.35;16.38;;;;;;;16.21;100.00;101949.75;5028587;28;20087;-73
2023/10/02 01:26:43;;;;;;;30.52;16.65;;;;;;;16.15;100.00;101952.88;5033985;28;20045;-73
2023/10/02 01:29:13;;;;;;;32.60;16.10;;;;;;;16.12;100.00;101953.09;5033751;28;20068;-73
2023/10/02 01:31:44;;;;;;;31.77;16.98;;;;;;;16.05;100.00;101958.88;5033872;28;20467;-73
2023/10/02 01:34:25;;;;;;;34.97;17.33;;;;;;;16.10;100.00;101944.25;5023146;28;20232;-73
2023/10/02 01:36:51;;;;;;;35.58;19.10;;;;;;;16.11;100.00;101952.22;5059483;28;20030;-74
2023/10/02 01:39:17;;;;;;;35.50;18.60;;;;;;;16.10;100.00;101946.94;5029169;28;20109;-73
2023/10/02 01:41:52;;;;;;;39.40;19.52;;;;;;;16.06;100.00;101948.97;5032391;28;20033;-73
2023/10/02 01:44:22;;;;;;;41.88;19.60;;;;;;;16.13;100.00;101947.59;5023256;28;20037;-73
2023/10/02 01:46:52;;;;;;;38.67;18.75;;;;;;;16.21;100.00;101945.22;5027084;28;20049;-73
2023/10/02 01:49:26;;;;;;;40.25;20.13;;;;;;;16.25;100.00;101944.03;5031505;28;20041;-72
2023/10/02 01:51:55;;;;;;;35.17;19.67;;;;;;;16.24;100.00;101939.63;5032997;28;20040;-73
2023/10/02 01:54:29;;;;;;;41.90;21.40;;;;;;;16.25;100.00;101933.28;5033044;28;20038;-73
2023/10/02 01:56:55;;;;;;;46.78;23.48;;;;;;;16.24;100.00;101941.47;5015675;28;21004;-74
2023/10/02 01:59:21;;;;;;;47.65;22.25;;;;;;;16.25;100.00;101938.66;5016140;28;20030;-73
2023/10/02 02:01:55;;;;;;;42.13;22.38;;;;;;;16.22;100.00;101946.97;5026608;28;20030;-73
2023/10/02 02:04:23;;;;;;;47.03;23.75;;;;;;;16.14;100.00;101946.63;5027522;28;20049;-72
2023/10/02 02:06:57;;;;;;;42.28;23.25;;;;;;;16.25;100.00;101949.44;5041714;28;20037;-73
2023/10/02 02:09:37;;;;;;;43.88;23.30;;;;;;;16.28;100.00;101948.38;5020776;28;20521;-73
2023/10/02 02:12:07;;;;;;;46.00;23.13;;;;;;;16.37;100.00;101947.72;5027195;28;20045;-73
2023/10/02 02:14:49;;;;;;;55.00;24.98;;;;;;;16.47;100.00;101947.94;5032433;28;20045;-73
2023/10/02 02:17:16;;;;;;;;;;;;;;;16.54;100.00;101950.09;5037266;28;20120;-73
2023/10/02 02:19:48;;;;;;;47.53;23.65;;;;;;;16.49;100.00;101951.38;5030215;28;19928;-72
2023/10/02 02:22:31;;;;;;;42.50;24.23;;;;;;;16.60;100.00;101947.91;5039563;28;20029;-73
2023/10/02 02:24:58;;;;;;;44.17;23.13;;;;;;;16.54;100.00;101946.53;5032665;28;20952;-73
2023/10/02 02:27:24;;;;;;;45.75;22.90;;;;;;;16.44;100.00;101948.16;5026245;28;20034;-73
2023/10/02 02:29:54;;;;;;;42.22;22.85;;;;;;;16.41;100.00;101941.13;5037542;28;20855;-73
2023/10/02 02:32:36;;;;;;;42.75;21.15;;;;;;;16.48;100.00;101942.44;5031406;28;20044;-72
2023/10/02 02:35:04;;;;;;;44.58;22.80;;;;;;;16.43;100.00;101936.53;5029737;28;20052;-73
2023/10/02 02:37:32;;;;;;;46.03;21.92;;;;;;;16.36;100.00;101935.22;5029526;28;20952;-72
2023/10/02 02:40:21;;;;;;;46.92;22.27;;;;;;;16.23;100.00;101932.53;5034746;28;20037;-73
2023/10/02 02:42:45;;;;;;;53.92;21.92;;;;;;;16.28;100.00;101941.16;5030739;28;20053;-73
2023/10/02 02:45:24;;;;;;;39.97;21.80;;;;;;;16.25;100.00;101938.66;5061068;28;20029;-73
2023/10/02 02:47:54;;;;;;;43.53;18.85;;;;;;;16.27;100.00;101941.28;5041305;28;20033;-73
2023/10/02 02:50:27;;;;;;;47.30;20.77;;;;;;;16.19;100.00;101936.41;5018192;28;20045;-73
2023/10/02 02:55:40;;;;;;;49.30;20.85;;;;;;;16.21;100.00;101933.59;5024346;28;20045;-73
2023/10/02 02:58:07;;;;;;;41.80;19.63;;;;;;;16.21;100.00;101931.75;5046056;28;20044;-73
2023/10/02 03:00:35;;;;;;;40.55;19.02;;;;;;;16.17;100.00;101922.22;5028371;28;20040;-73
2023/10/02 03:03:02;;;;;;;39.90;18.60;;;;;;;16.12;100.00;101928.88;5033447;28;20938;-73
2023/10/02 03:05:43;;;;;;;35.05;18.98;;;;;;;16.10;100.00;101920.88;5030165;28;20042;-73
2023/10/02 03:08:11;;;;;;;37.70;17.73;;;;;;;16.04;100.00;101916.81;5029660;28;20041;-73
2023/10/02 03:10:37;;;;;;;39.75;18.65;;;;;;;16.03;100.00;101925.00;5028774;28;20049;-73
2023/10/02 03:13:03;;;;;;;38.63;18.50;;;;;;;16.04;100.00;101914.09;5024924;28;20116;-73
2023/10/02 03:15:47;;;;;;;41.53;16.55;;;;;;;16.04;100.00;101907.88;5019586;28;20056;-73
2023/10/02 03:21:22;;;;;;;36.65;16.70;;;;;;;15.98;100.00;101906.47;5040707;28;20119;-73
2023/10/02 03:23:53;;;;;;;36.28;17.40;;;;;;;16.01;100.00;101908.97;5027821;28;20030;-73
2023/10/02 03:26:27;;;;;;;32.30;15.13;;;;;;;16.00;100.00;101898.28;5038479;28;20041;-73
2023/10/02 03:29:02;;;;;;;39.22;17.75;;;;;;;15.99;100.00;101902.81;5031420;28;20121;-73
2023/10/02 03:31:51;;;;;;;39.22;17.27;;;;;;;15.94;100.00;101899.56;5020688;28;20046;-73
2023/10/02 03:34:27;;;;;;;45.70;19.55;;;;;;;15.87;100.00;101902.81;5027591;28;20092;-73
2023/10/02 03:42:25;;;;;;;37.78;18.20;;;;;;;15.79;100.00;101900.63;5030438;28;20147;-72
2023/10/02 03:44:54;;;;;;;37.58;17.92;;;;;;;15.81;100.00;101898.69;5022875;28;20048;-73
2023/10/02 03:47:21;;;;;;;44.78;20.48;;;;;;;15.80;100.00;101892.44;5028510;28;20176;-73
2023/10/02 03:49:47;;;;;;;42.58;19.80;;;;;;;15.83;100.00;101895.91;5024812;28;20042;-73
2023/10/02 03:52:16;;;;;;;48.25;21.35;;;;;;;15.82;100.00;101889.66;5027574;28;20040;-73
2023/10/02 03:54:45;;;;;;;40.65;19.60;;;;;;;15.85;100.00;101891.28;5034097;28;20073;-73
2023/10/02 03:57:37;;;;;;;42.25;19.80;;;;;;;15.80;100.00;101895.13;5028751;28;20030;-73
2023/10/02 04:00:18;;;;;;;41.45;19.70;;;;;;;15.79;100.00;101896.09;5027899;28;20562;-74
2023/10/02 04:02:45;;;;;;;45.72;21.77;;;;;;;15.73;100.00;101904.59;5014437;28;20038;-73
2023/10/02 04:05:15;;;;;;;47.60;22.73;;;;;;;15.69;100.00;101900.38;5034250;28;20042;-73
2023/10/02 04:08:12;;;;;;;46.22;20.23;;;;;;;15.78;100.00;101901.59;5034124;28;20026;-73
2023/10/02 04:10:51;;;;;;;45.13;22.05;;;;;;;15.73;100.00;101904.59;5029241;28;20048;-73
2023/10/02 04:13:18;;;;;;;43.38;21.00;;;;;;;15.76;100.00;101903.50;5029346;28;20104;-72
2023/10/02 04:15:44;;;;;;;42.78;19.45;;;;;;;15.76;100.00;101907.09;5028970;28;20034;-74
2023/10/02 04:18:38;;;;;;;41.47;19.90;;;;;;;15.73;100.00;101901.91;5031019;28;20846;-73
2023/10/02 04:21:01;;;;;;;36.88;20.08;;;;;;;15.72;100.00;101889.44;5028340;28;20163;-72
2023/10/02 04:23:27;;;;;;;41.92;20.20;;;;;;;15.73;100.00;101893.84;5026578;28;20029;-72
2023/10/02 04:25:53;;;;;;;46.30;21.95;;;;;;;15.67;100.00;101893.41;5026330;28;20045;-73
2023/10/02 04:28:27;;;;;;;48.92;21.30;;;;;;;15.66;100.00;101894.34;5027257;28;20042;-73
2023/10/02 04:31:05;;;;;;;48.03;21.75;;;;;;;15.65;100.00;101895.31;5020249;28;20046;-72
2023/10/02 04:33:37;;;;;;;42.20;19.65;;;;;;;15.62;100.00;101891.00;5023677;28;20048;-73
2023/10/02 04:36:05;;;;;;;38.85;20.42;;;;;;;15.60;100.00;101898.28;5028502;28;20120;-73
2023/10/02 04:38:49;;;;;;;46.08;21.60;;;;;;;15.55;100.00;101895.03;5060581;28;20068;-73
2023/10/02 04:41:26;;;;;;;43.95;21.95;;;;;;;15.55;100.00;101897.72;5030502;28;20052;-72
2023/10/02 04:43:57;;;;;;;39.63;19.90;;;;;;;15.53;100.00;101899.69;5016332;28;20045;-73
2023/10/02 04:46:26;;;;;;;43.20;20.45;;;;;;;15.53;100.00;101900.53;5024758;28;20044;-72
2023/10/02 04:48:59;;;;;;;43.85;20.13;;;;;;;15.48;100.00;101899.13;5025132;28;20155;-73
2023/10/02 04:51:28;;;;;;;43.72;20.70;;;;;;;15.45;100.00;101907.38;5029901;28;20145;-73
2023/10/02 04:53:57;;;;;;;38.33;19.52;;;;;;;15.44;100.00;101900.28;5031884;28;20033;-73
2023/10/02 04:56:26;;;;;;;43.28;21.02;;;;;;;15.40;100.00;101899.63;5033594;28;20044;-73
2023/10/02 04:58:57;;;;;;;36.75;18.45;;;;;;;15.39;100.00;101902.41;5063533;28;20109;-72
2023/10/02 05:01:34;;;;;;;46.80;21.58;;;;;;;15.39;100.00;101905.97;5030792;28;20048;-72
2023/10/02 05:04:04;;;;;;;39.15;19.60;;;;;;;15.37;100.00;101909.75;5032255;28;20073;-74
2023/10/02 05:06:44;;;;;;;47.65;21.17;;;;;;;15.27;100.00;101912.16;5029850;28;20148;-74
2023/10/02 05:11:57;;;;;;;47.05;22.20;;;;;;;15.27;100.00;101915.72;5025149;28;20055;-72
2023/10/02 05:14:27;;;;;;;50.17;23.20;;;;;;;15.27;100.00;101915.72;5028315;28;20119;-72
2023/10/02 05:16:56;;;;;;;51.53;23.98;;;;;;;15.27;100.00;101910.34;5023720;28;20089;-73
2023/10/02 05:19:54;;;;;;;55.25;27.38;;;;;;;15.17;100.00;101897.63;5024630;28;20187;-73
2023/10/02 05:22:07;;;;;;;54.38;26.17;;;;;;;15.23;100.00;101905.28;5019771;28;20044;-73
2023/10/02 05:24:34;;;;;;;60.72;28.63;;;;;;;15.25;100.00;101909.56;5029773;28;20021;-74
2023/10/02 05:27:03;;;;;;;64.80;28.27;;;;;;;15.22;100.00;101907.09;5030078;28;20140;-73
2023/10/02 05:29:41;;;;;;;67.93;30.67;;;;;;;15.24;100.00;101901.63;5029358;28;20486;-74
2023/10/02 05:32:19;;;;;;;63.15;30.48;;;;;;;15.25;100.00;101906.03;5027717;28;20908;-73
2023/10/02 05:35:00;;;;;;;68.57;30.13;;;;;;;15.24;100.00;101888.19;5016664;28;20568;-73
2023/10/02 05:37:30;;;;;;;77.57;36.80;;;;;;;15.28;100.00;101909.38;5018572;28;20034;-73
2023/10/02 05:40:47;;;;;;;73.00;34.03;;;;;;;15.28;100.00;101905.81;5059527;28;20041;-73
2023/10/02 05:50:52;;;;;;;86.47;42.03;;;;;;;15.31;100.00;101916.34;5017415;28;20091;-73
2023/10/02 05:53:21;;;;;;;111.40;49.28;;;;;;;15.38;100.00;101919.53;5031487;28;20061;-73
2023/10/02 05:56:05;;;;;;;106.47;47.88;;;;;;;15.37;100.00;101912.44;5028226;28;20124;-73
2023/10/02 05:58:32;;;;;;;113.88;55.53;;;;;;;15.47;100.00;101909.03;5023896;28;20041;-73
2023/10/02 06:01:05;;;;;;;116.30;53.58;;;;;;;15.59;100.00;101914.53;5034123;28;20044;-73
2023/10/02 06:03:35;;;;;;;106.07;52.72;;;;;;;15.63;100.00;101911.56;5024566;28;20053;-73
2023/10/02 06:06:24;;;;;;;104.03;49.17;;;;;;;15.66;100.00;101910.47;5019826;28;20057;-73
2023/10/02 06:09:01;;;;;;;106.57;48.63;;;;;;;15.64;100.00;101918.66;5023205;28;20088;-74
2023/10/02 06:11:26;;;;;;;106.80;51.05;;;;;;;15.69;100.00;101915.66;5030121;28;20041;-73
2023/10/02 06:13:54;;;;;;;103.38;47.10;;;;;;;15.66;100.00;101924.81;5027781;28;20045;-73
2023/10/02 06:16:30;;;;;;;101.57;50.03;;;;;;;15.74;100.00;101919.75;5033715;28;20061;-73
2023/10/02 06:19:02;;;;;;;96.65;46.83;;;;;;;15.83;100.00;101926.34;5022811;28;20034;-73
2023/10/02 06:21:31;;;;;;;87.32;43.17;;;;;;;15.97;100.00;101920.91;5022892;28;20025;-73
2023/10/02 06:23:58;;;;;;;86.07;37.85;;;;;;;16.04;100.00;101916.81;5022144;28;20045;-73
2023/10/02 06:26:46;;;;;;;71.78;34.60;;;;;;;16.15;100.00;101920.56;5033391;28;20081;-73
2023/10/02 06:29:16;;;;;;;69.07;33.33;;;;;;;16.14;100.00;101927.78;5027325;28;20072;-73
2023/10/02 06:31:50;;;;;;;64.38;31.55;;;;;;;16.26;100.00;101924.22;5026714;28;20045;-73
2023/10/02 06:34:19;;;;;;;64.97;28.92;;;;;;;16.36;100.00;101926.28;5028235;28;20043;-73
2023/10/02 06:36:48;;;;;;;60.30;28.88;;;;;;;16.42;100.00;101918.66;5030982;28;20041;-73
2023/10/02 06:39:21;;;;;;;60.25;27.88;;;;;;;16.58;100.00;101929.19;5024534;28;20033;-73
2023/10/02 06:41:47;;;;;;;59.30;29.45;;;;;;;16.61;100.00;101934.34;5027479;28;20057;-73
2023/10/02 06:44:16;;;;;;;63.00;26.90;;;;;;;16.81;100.00;101938.34;5020350;28;20084;-73
2023/10/02 06:46:53;;;;;;;55.65;26.30;;;;;;;16.96;100.00;101937.22;5018636;28;20026;-73
2023/10/02 06:49:20;;;;;;;43.20;23.20;;;;;;;17.16;100.00;101932.22;5019433;28;20088;-72
2023/10/02 06:51:50;;;;;;;50.40;25.45;;;;;;;17.38;100.00;101939.59;5027946;28;20040;-72
2023/10/02 06:54:18;;;;;;;47.17;23.45;;;;;;;17.59;100.00;101929.88;5031068;28;20041;-73
2023/10/02 06:56:44;;;;;;;51.60;25.48;;;;;;;17.78;100.00;101935.63;5036139;28;20034;-73
2023/10/02 06:59:09;;;;;;;49.30;25.65;;;;;;;17.98;100.00;101923.31;5032673;28;20140;-73
2023/10/02 07:01:35;;;;;;;68.97;32.28;;;;;;;17.88;100.00;101927.69;5022424;28;20034;-73
2023/10/02 07:04:09;;;;;;;67.05;31.23;;;;;;;18.21;100.00;101924.19;5033945;28;20150;-73
2023/10/02 07:06:40;;;;;;;68.78;33.47;;;;;;;18.20;100.00;101917.09;5035019;28;20073;-73
2023/10/02 07:09:13;;;;;;;81.18;37.90;;;;;;;18.02;100.00;101913.09;5027554;28;20033;-73
2023/10/02 07:11:42;;;;;;;75.80;37.67;;;;;;;18.47;100.00;101922.13;5024278;28;20041;-73
2023/10/02 07:14:09;;;;;;;73.95;34.50;;;;;;;18.64;100.00;101921.66;5026981;28;20045;-73
2023/10/02 07:16:36;;;;;;;75.00;35.10;;;;;;;18.83;100.00;101929.19;5030639;28;20033;-73
2023/10/02 07:19:04;;;;;;;71.03;33.95;;;;;;;19.08;100.00;101921.78;5028353;28;20033;-74
2023/10/02 07:21:33;;;;;;;76.97;35.25;;;;;;;19.25;100.00;101914.97;5031469;28;20072;-73
2023/10/02 07:24:02;;;;;;;67.15;32.72;;;;;;;19.46;100.00;101907.75;5022999;28;20144;-74
2023/10/02 07:29:12;;;;;;;65.88;31.92;;;;;;;19.92;100.00;101895.75;5027290;28;20037;-73
2023/10/02 07:31:38;;;;;;;71.47;31.67;;;;;;;20.40;100.00;101900.63;5027710;28;20045;-73
2023/10/02 07:34:07;;;;;;;73.60;31.17;;;;;;;20.68;100.00;101897.22;5032833;28;20045;-73
2023/10/02 07:36:44;;;;;;;61.92;29.85;;;;;;;21.05;100.00;101898.44;5052019;28;20037;-73
2023/10/02 07:39:35;;;;;;;59.00;29.30;;;;;;;21.15;100.00;101894.75;5033240;28;20052;-74
2023/10/02 07:42:00;;;;;;;63.53;30.42;;;;;;;21.53;100.00;101890.38;5027576;28;20118;-73
2023/10/02 07:44:36;;;;;;;64.78;31.63;;;;;;;21.27;100.00;101905.47;5026326;28;20037;-73
2023/10/02 07:47:10;;;;;;;70.85;34.35;;;;;;;21.02;100.00;101899.56;5029131;28;20132;-72
2023/10/02 07:49:39;;;;;;;80.43;36.90;;;;;;;20.58;100.00;101899.03;5027072;28;20056;-73
2023/10/02 07:52:08;;;;;;;78.63;37.33;;;;;;;20.86;100.00;101902.81;5033290;28;20025;-73
2023/10/02 07:54:48;;;;;;;79.07;39.78;;;;;;;20.72;100.00;101905.91;5034146;28;20052;-74
2023/10/02 07:57:13;;;;;;;76.53;39.67;;;;;;;20.81;100.00;101905.09;5033500;28;20029;-73
2023/10/02 07:59:43;;;;;;;83.10;39.75;;;;;;;20.94;100.00;101900.28;5030579;28;20048;-72
2023/10/02 08:02:22;;;;;;;76.70;40.20;;;;;;;21.08;100.00;101901.72;5031353;28;20037;-74
2023/10/02 08:04:51;;;;;;;76.68;38.38;;;;;;;21.16;100.00;101891.03;5023559;28;20041;-73
2023/10/02 08:07:20;;;;;;;77.82;36.83;;;;;;;21.15;100.00;101888.47;5024687;28;20064;-73
2023/10/02 08:09:52;;;;;;;78.25;37.83;;;;;;;21.19;100.00;101890.75;5031534;28;20041;-73
2023/10/02 08:12:29;;;;;;;84.88;40.83;;;;;;;20.88;100.00;101886.41;5037024;28;20033;-73
2023/10/02 08:14:58;;;;;;;82.00;38.38;;;;;;;21.05;100.00;101887.59;5024584;28;20052;-72
2023/10/02 08:17:59;;;;;;;79.47;37.50;;;;;;;20.94;100.00;101888.56;5023739;28;20041;-73
2023/10/02 08:20:16;;;;;;;71.40;34.22;;;;;;;21.05;100.00;101890.31;5026629;28;20084;-73
2023/10/02 08:22:46;;;;;;;66.20;33.72;;;;;;;21.07;100.00;101894.59;5026080;28;20139;-74
2023/10/02 08:25:13;;;;;;;64.75;32.40;;;;;;;21.03;100.00;101889.56;5020780;28;20044;-73
2023/10/02 08:27:57;;;;;;;63.00;31.35;;;;;;;21.24;100.00;101897.63;5028473;28;20136;-73
2023/10/02 08:30:36;;;;;;;62.63;30.17;;;;;;;21.38;100.00;101889.94;5024665;28;20042;-73
2023/10/02 08:33:11;;;;;;;59.28;29.08;;;;;;;21.27;100.00;101891.91;5030745;28;20041;-73
2023/10/02 08:35:37;;;;;;;71.65;31.25;;;;;;;21.10;100.00;101902.44;5035016;28;20052;-72
2023/10/02 08:38:21;;;;;;;70.90;32.75;;;;;;;21.08;100.00;101901.72;5025825;28;20034;-73
2023/10/02 08:40:57;;;;;;;68.15;32.45;;;;;;;21.14;100.00;101895.75;5030179;28;20111;-73
2023/10/02 08:43:26;;;;;;;70.70;33.42;;;;;;;21.16;100.00;101901.03;5039392;28;20037;-73
2023/10/02 08:45:52;;;;;;;77.93;36.00;;;;;;;21.21;100.00;101901.47;5031679;28;20041;-73
2023/10/02 08:48:21;;;;;;;64.38;33.08;;;;;;;21.31;100.00;101893.38;5022712;28;20148;-73
2023/10/02 08:50:48;;;;;;;65.55;33.13;;;;;;;21.68;100.00;101891.66;5022318;28;20136;-74
2023/10/02 08:53:21;;;;;;;67.95;32.50;;;;;;;21.55;100.00;101893.81;5025054;28;20034;-73
2023/10/02 08:56:21;;;;;;;61.30;31.50;;;;;;;21.76;100.00;101901.81;5025436;28;20136;-74
2023/10/02 08:58:47;;;;;;;63.35;30.75;;;;;;;21.90;100.00;101914.09;5025854;28;20045;-73
2023/10/02 09:01:20;;;;;;;64.32;30.30;;;;;;;21.95;100.00;101909.09;5032097;28;20037;-73
2023/10/02 09:04:21;;;;;;;64.18;30.25;;;;;;;21.82;100.00;101903.09;5029961;28;20487;-74
2023/10/02 09:06:41;;;;;;;67.15;32.03;;;;;;;21.90;100.00;101908.66;5023091;28;20092;-73
2023/10/02 09:11:44;;;;;;;53.60;28.42;;;;;;;21.97;100.00;101907.06;5020932;28;20061;-73
2023/10/02 09:14:53;;;;;;;63.90;31.77;;;;;;;22.04;100.00;101896.47;5032284;28;20041;-73
2023/10/02 09:17:22;;;;;;;66.03;33.00;;;;;;;22.05;100.00;101900.91;5026495;28;20128;-73
2023/10/02 09:20:00;;;;;;;61.40;29.88;;;;;;;22.14;100.00;101895.50;5025981;28;20056;-73
2023/10/02 09:22:27;;;;;;;52.22;26.55;;;;;;;21.77;100.00;101899.94;5061124;28;20030;-74
2023/10/02 09:25:12;;;;;;;53.63;23.40;;;;;;;21.91;100.00;101894.06;5021549;28;20022;-73
2023/10/02 09:27:54;;;;;;;43.83;21.95;;;;;;;22.00;100.00;101898.63;5021682;28;20044;-73
2023/10/02 09:30:23;;;;;;;42.10;21.58;;;;;;;21.85;100.00;101902.81;5030407;28;20048;-73
2023/10/02 09:32:51;;;;;;;45.03;21.67;;;;;;;22.16;100.00;101896.19;5020690;28;20033;-73
2023/10/02 09:35:29;;;;;;;39.33;20.45;;;;;;;22.31;100.00;101899.28;5029223;28;21135;-74
2023/10/02 09:38:05;;;;;;;39.67;20.88;;;;;;;22.52;100.00;101903.66;5024359;28;20100;-73
2023/10/02 09:40:54;;;;;;;45.13;21.60;;;;;;;22.45;100.00;101892.53;5023380;28;20120;-73
2023/10/02 09:43:22;;;;;;;41.08;21.35;;;;;;;22.64;100.00;101886.13;5031069;28;20207;-73
2023/10/02 09:45:49;;;;;;;39.75;20.55;;;;;;;22.40;100.00;101879.38;5027618;28;20057;-73
2023/10/02 09:48:57;;;;;;;47.58;22.10;;;;;;;22.60;100.00;101871.16;5025511;28;20068;-73
2023/10/02 09:51:25;;;;;;;44.78;22.00;;;;;;;22.60;100.00;101876.59;5024348;28;20808;-73
2023/10/02 09:54:08;;;;;;;42.65;20.75;;;;;;;22.54;100.00;101863.56;5026889;28;20042;-73
2023/10/02 09:56:52;;;;;;;40.63;21.23;;;;;;;22.48;100.00;101868.59;5028580;28;20034;-73
2023/10/02 09:59:22;;;;;;;42.40;21.38;;;;;;;22.49;100.00;101875.78;5031479;28;20260;-73
2023/10/02 10:02:07;;;;;;;42.30;21.42;;;;;;;22.52;100.00;101879.19;5038170;28;20047;-73
2023/10/02 10:10:52;;;;;;;41.55;21.40;;;;;;;23.14;100.00;101869.41;5026840;28;20210;-73
2023/10/02 10:13:50;;;;;;;37.08;20.30;;;;;;;23.29;100.00;101869.72;5023965;28;20034;-73
2023/10/02 10:16:18;;;;;;;43.53;20.58;;;;;;;23.20;100.00;101869.66;5027610;28;20037;-73
2023/10/02 10:21:58;;;;;;;45.70;20.65;;;;;;;23.14;100.00;101861.25;5019589;28;20041;-74
2023/10/02 10:28:08;;;;;;;42.40;21.95;;;;;;;23.37;100.00;101853.47;5021883;28;20473;-73
2023/10/02 10:30:43;;;;;;;45.22;21.85;;;;;;;23.39;100.00;101856.88;5027320;28;20044;-73
2023/10/02 10:35:35;;;;;;;49.22;21.50;;;;;;;23.58;100.00;101848.56;5033811;28;20026;-73
2023/10/02 10:38:21;;;;;;;44.33;21.10;;;;;;;23.76;100.00;101848.56;5033682;28;20974;-73
2023/10/02 10:40:50;;;;;;;46.30;21.48;;;;;;;23.86;93.97;101846.59;5032553;28;20037;-73
2023/10/02 10:43:17;;;;;;;43.08;21.20;;;;;;;24.02;96.75;101845.84;5036352;28;20048;-74
2023/10/02 10:45:44;;;;;;;43.97;20.83;;;;;;;24.44;95.44;101843.19;5026571;28;20041;-73
2023/10/02 10:48:21;;;;;;;42.58;21.60;;;;;;;24.32;92.57;101838.19;5027089;28;20120;-73
2023/10/02 10:50:57;;;;;;;39.38;20.52;;;;;;;24.40;94.05;101843.69;5029614;28;20052;-73
2023/10/02 10:53:32;;;;;;;46.10;20.60;;;;;;;24.45;92.93;101844.06;5028748;28;20080;-74
2023/10/02 10:56:05;;;;;;;43.70;20.70;;;;;;;24.12;93.13;101834.84;5032149;28;20522;-73
2023/10/02 10:58:33;;;;;;;35.67;19.85;;;;;;;24.37;94.39;101833.97;5024263;28;20054;-73
2023/10/02 11:01:13;;;;;;;41.65;20.10;;;;;;;24.49;92.88;101837.25;5036139;28;21103;-73
2023/10/02 11:03:39;;;;;;;41.53;19.20;;;;;;;24.64;92.64;101841.06;5030763;28;20140;-74
2023/10/02 11:06:06;;;;;;;41.85;21.35;;;;;;;24.78;91.43;101831.41;5033932;28;20041;-73
2023/10/02 11:08:37;;;;;;;40.63;19.25;;;;;;;24.78;93.34;101831.41;5037925;28;20049;-73
2023/10/02 11:11:11;;;;;;;44.80;21.57;;;;;;;25.12;92.61;101833.22;5029027;28;20562;-73
2023/10/02 11:13:59;;;;;;;43.63;21.05;;;;;;;25.16;92.23;101837.34;5028943;28;20433;-74
2023/10/02 11:16:31;;;;;;;37.40;19.55;;;;;;;24.81;96.50;101831.09;5022456;28;20045;-73
2023/10/02 11:19:21;;;;;;;45.42;21.83;;;;;;;24.56;93.96;101827.41;5024125;28;20106;-73
2023/10/02 11:22:15;;;;;;;41.88;20.75;;;;;;;24.31;95.43;101823.69;5028220;28;20045;-73
2023/10/02 11:24:53;;;;;;;41.75;20.35;;;;;;;24.56;94.05;101824.69;5029426;28;20121;-74
2023/10/02 11:27:19;;;;;;;39.33;19.73;;;;;;;24.39;96.31;101821.03;5022797;28;20037;-73
2023/10/02 11:30:02;;;;;;;37.40;20.38;;;;;;;24.58;96.23;101825.38;5026660;28;20053;-73
2023/10/02 11:32:53;;;;;;;46.58;20.80;;;;;;;24.51;95.52;101816.16;5022628;28;20029;-73
2023/10/02 11:35:46;;;;;;;42.35;20.70;;;;;;;24.45;95.96;101808.59;5028828;28;20037;-73
2023/10/02 11:38:09;;;;;;;43.85;21.38;;;;;;;24.72;96.50;101800.19;5022771;28;20099;-73
2023/10/02 11:40:35;;;;;;;48.85;22.38;;;;;;;24.85;94.37;101798.84;5023660;28;20033;-73
2023/10/02 11:43:01;;;;;;;46.08;23.33;;;;;;;24.65;95.49;101806.47;5028380;28;20029;-73
2023/10/02 11:45:28;;;;;;;45.85;23.63;;;;;;;24.90;93.43;101793.72;5022102;28;20080;-73
2023/10/02 11:47:53;;;;;;;40.92;22.33;;;;;;;25.26;96.06;101800.66;5025126;28;20040;-73
2023/10/02 11:50:19;;;;;;;50.30;25.63;;;;;;;25.51;91.99;101789.72;5025713;28;32758;-73
2023/10/02 11:52:44;;;;;;;40.80;21.90;;;;;;;25.09;91.48;101789.88;5040233;28;20078;-74
2023/10/02 11:55:11;;;;;;;42.97;19.42;;;;;;;25.07;93.39;101795.50;5024385;28;20037;-73
2023/10/02 11:57:37;;;;;;;38.65;20.88;;;;;;;25.14;95.78;101788.34;5039270;28;20104;-74
2023/10/02 12:00:08;;;;;;;45.00;21.58;;;;;;;25.16;96.95;101799.97;5032810;28;20047;-74
2023/10/02 12:02:38;;;;;;;38.17;21.33;;;;;;;25.08;93.23;101790.91;5032953;28;20041;-73
2023/10/02 12:05:04;;;;;;;41.42;21.60;;;;;;;25.26;92.30;101795.19;5027520;28;20099;-73
2023/10/02 12:07:30;;;;;;;42.08;21.33;;;;;;;24.97;95.41;101794.78;5034041;28;20104;-73
2023/10/02 12:09:55;;;;;;;37.40;18.88;;;;;;;25.06;96.09;101801.97;5028582;28;20040;-73
2023/10/02 12:12:21;;;;;;;38.35;20.27;;;;;;;25.03;96.13;101796.84;5032690;28;20038;-73
2023/10/02 12:14:46;;;;;;;38.97;17.90;;;;;;;25.03;95.81;101794.09;5031575;28;20040;-73
2023/10/02 12:17:12;;;;;;;41.60;19.27;;;;;;;24.96;97.72;101793.94;5028500;28;20033;-73
2023/10/02 12:19:40;;;;;;;37.72;18.92;;;;;;;24.70;94.98;101785.88;5017883;28;20038;-73